createdAt,value
2023-08-03T00:01:15.506Z,21.10
2023-08-03T00:03:43.229Z,21.10
2023-08-03T00:06:11.052Z,21.10
2023-08-03T00:08:38.760Z,21.10
2023-08-03T00:11:06.451Z,21.10
2023-08-03T00:13:34.183Z,21.10
2023-08-03T00:16:01.910Z,21.10
2023-08-03T00:18:29.572Z,21.10
2023-08-03T00:20:57.335Z,21.12
2023-08-03T00:23:25.068Z,21.20
2023-08-03T00:25:52.721Z,21.20
2023-08-03T00:28:22.539Z,21.20
2023-08-03T00:30:50.383Z,21.20
2023-08-03T00:33:18.128Z,21.20
2023-08-03T00:35:45.825Z,21.20
2023-08-03T00:38:13.572Z,21.18
2023-08-03T00:40:41.412Z,21.20
2023-08-03T00:43:09.192Z,21.10
2023-08-03T00:45:36.888Z,21.10
2023-08-03T00:48:04.768Z,21.10
2023-08-03T00:50:32.520Z,21.10
2023-08-03T00:53:00.217Z,21.10
2023-08-03T00:55:27.923Z,21.06
2023-08-03T00:57:55.611Z,21.00
2023-08-03T01:00:23.347Z,21.00
2023-08-03T01:02:51.260Z,21.00
2023-08-03T01:05:19.223Z,20.98
2023-08-03T01:07:46.904Z,20.90
2023-08-03T01:10:14.706Z,20.90
2023-08-03T01:12:42.382Z,20.92
2023-08-03T01:15:10.562Z,20.90
2023-08-03T01:17:38.326Z,20.90
2023-08-03T01:20:07.057Z,21.00
2023-08-03T01:22:44.516Z,21.00
2023-08-03T01:25:13.525Z,20.98
2023-08-03T01:27:41.846Z,21.00
2023-08-03T01:30:10.050Z,21.00
2023-08-03T01:32:38.391Z,20.92
2023-08-03T01:35:07.565Z,20.94
2023-08-03T01:37:37.042Z,20.90
2023-08-03T01:40:05.923Z,20.90
2023-08-03T01:42:33.890Z,20.90
2023-08-03T01:45:01.578Z,20.90
2023-08-03T01:47:29.327Z,20.90
2023-08-03T01:49:56.940Z,20.90
2023-08-03T01:52:24.574Z,20.90
2023-08-03T01:54:52.380Z,20.90
2023-08-03T01:57:20.112Z,20.80
2023-08-03T01:59:47.855Z,20.80
2023-08-03T02:02:15.951Z,20.80
2023-08-03T02:04:43.657Z,20.80
2023-08-03T02:07:18.376Z,20.80
2023-08-03T02:09:46.036Z,20.80
2023-08-03T02:12:13.684Z,20.78
2023-08-03T02:14:41.297Z,20.78
2023-08-03T02:17:08.938Z,20.70
2023-08-03T02:19:38.500Z,20.70
2023-08-03T02:22:06.907Z,20.70
2023-08-03T02:24:34.590Z,20.60
2023-08-03T02:27:02.248Z,20.60
2023-08-03T02:29:29.887Z,20.60
2023-08-03T02:31:57.565Z,20.60
2023-08-03T02:34:25.213Z,20.50
2023-08-03T02:36:52.872Z,20.50
2023-08-03T02:39:20.545Z,20.46
2023-08-03T02:41:48.545Z,20.42
2023-08-03T02:44:16.397Z,20.40
2023-08-03T02:46:44.035Z,20.40
2023-08-03T02:49:11.795Z,20.40
2023-08-03T02:51:39.431Z,20.40
2023-08-03T02:54:07.121Z,20.40
2023-08-03T02:56:34.761Z,20.40
2023-08-03T02:59:02.438Z,20.34
2023-08-03T03:01:31.256Z,20.30
2023-08-03T03:03:58.948Z,20.30
2023-08-03T03:06:26.586Z,20.30
2023-08-03T03:08:54.396Z,20.30
2023-08-03T03:11:22.108Z,20.30
2023-08-03T03:13:49.745Z,20.28
2023-08-03T03:16:17.523Z,20.22
2023-08-03T03:18:45.355Z,20.22
2023-08-03T03:21:13.013Z,20.20
2023-08-03T03:23:40.692Z,20.20
2023-08-03T03:26:08.376Z,20.20
2023-08-03T03:28:35.989Z,20.20
2023-08-03T03:31:03.802Z,20.20
2023-08-03T03:33:31.512Z,20.20
2023-08-03T03:35:59.282Z,20.20
2023-08-03T03:38:27.025Z,20.20
2023-08-03T03:40:54.644Z,20.20
2023-08-03T03:43:22.363Z,20.20
2023-08-03T03:45:50.017Z,20.20
2023-08-03T03:48:17.800Z,20.20
2023-08-03T03:50:45.507Z,20.20
2023-08-03T03:53:13.165Z,20.20
2023-08-03T03:55:40.809Z,20.20
2023-08-03T03:58:08.716Z,20.20
2023-08-03T04:00:41.322Z,20.20
2023-08-03T04:03:09.400Z,20.20
2023-08-03T04:05:38.830Z,20.20
2023-08-03T04:08:07.212Z,20.20
2023-08-03T04:10:36.542Z,20.20
2023-08-03T04:13:04.262Z,20.20
2023-08-03T04:15:32.013Z,20.20
2023-08-03T04:18:00.129Z,20.20
2023-08-03T04:20:27.878Z,20.20
2023-08-03T04:22:55.502Z,20.20
2023-08-03T04:25:23.169Z,20.20
2023-08-03T04:27:51.254Z,20.26
2023-08-03T04:30:18.890Z,20.30
2023-08-03T04:32:46.650Z,20.30
2023-08-03T04:35:15.507Z,20.30
2023-08-03T04:37:43.184Z,20.30
2023-08-03T04:40:11.539Z,20.30
2023-08-03T04:42:39.313Z,20.30
2023-08-03T04:45:07.864Z,20.30
2023-08-03T04:47:35.608Z,20.30
2023-08-03T04:50:03.346Z,20.30
2023-08-03T04:52:30.986Z,20.30
2023-08-03T04:54:58.666Z,20.30
2023-08-03T04:57:26.663Z,20.40
2023-08-03T04:59:54.316Z,20.40
2023-08-03T05:02:22.114Z,20.40
2023-08-03T05:04:49.850Z,20.40
2023-08-03T05:07:17.538Z,20.46
2023-08-03T05:09:45.185Z,20.50
2023-08-03T05:12:12.879Z,20.56
2023-08-03T05:14:40.558Z,20.60
2023-08-03T05:17:08.249Z,20.60
2023-08-03T05:19:35.884Z,20.60
2023-08-03T05:22:03.673Z,20.60
2023-08-03T05:24:31.860Z,20.60
2023-08-03T05:27:00.056Z,20.60
2023-08-03T05:29:29.366Z,20.60
2023-08-03T05:31:57.048Z,20.60
2023-08-03T05:34:25.062Z,20.66
2023-08-03T05:36:53.574Z,20.70
2023-08-03T05:39:21.432Z,20.70
2023-08-03T05:41:49.128Z,20.70
2023-08-03T05:44:17.247Z,20.70
2023-08-03T05:46:45.589Z,20.70
2023-08-03T05:49:14.187Z,20.60
2023-08-03T05:51:42.055Z,20.60
2023-08-03T05:54:18.098Z,20.60
2023-08-03T05:56:48.867Z,20.60
2023-08-03T05:59:25.657Z,20.60
2023-08-03T06:01:53.713Z,20.50
2023-08-03T06:04:21.489Z,20.50
2023-08-03T06:06:49.246Z,20.50
2023-08-03T06:09:23.967Z,20.46
2023-08-03T06:11:52.822Z,20.48
2023-08-03T06:14:20.493Z,20.40
2023-08-03T06:16:48.230Z,20.40
2023-08-03T06:19:17.777Z,20.40
2023-08-03T06:21:45.635Z,20.40
2023-08-03T06:24:14.322Z,20.40
2023-08-03T06:26:42.058Z,20.40
2023-08-03T06:29:14.074Z,20.40
2023-08-03T06:31:42.178Z,20.40
2023-08-03T06:34:13.341Z,20.40
2023-08-03T06:36:43.766Z,20.40
2023-08-03T06:39:11.500Z,20.40
2023-08-03T06:41:39.876Z,20.40
2023-08-03T06:44:09.701Z,20.40
2023-08-03T06:46:37.835Z,20.40
2023-08-03T06:49:05.600Z,20.50
2023-08-03T06:51:33.659Z,20.50
2023-08-03T06:54:03.592Z,20.50
2023-08-03T06:56:32.970Z,20.52
2023-08-03T06:59:00.671Z,20.60
2023-08-03T07:01:28.506Z,20.60
2023-08-03T07:03:56.381Z,20.60
2023-08-03T07:06:24.246Z,20.60
2023-08-03T07:08:52.063Z,20.60
2023-08-03T07:11:19.729Z,20.60
2023-08-03T07:13:47.519Z,20.60
2023-08-03T07:16:15.186Z,20.60
2023-08-03T07:18:43.246Z,20.60
2023-08-03T07:21:11.074Z,20.60
2023-08-03T07:23:38.821Z,20.62
2023-08-03T07:26:16.323Z,20.60
2023-08-03T07:28:44.098Z,20.60
2023-08-03T07:31:15.941Z,20.60
2023-08-03T07:33:43.930Z,20.60
2023-08-03T07:36:19.269Z,20.60
2023-08-03T07:38:47.446Z,20.60
2023-08-03T07:41:15.279Z,20.60
2023-08-03T07:43:43.017Z,20.60
2023-08-03T07:46:11.029Z,20.60
2023-08-03T07:48:38.739Z,20.60
2023-08-03T07:51:21.582Z,20.54
2023-08-03T07:53:50.955Z,20.50
2023-08-03T07:56:21.395Z,20.50
2023-08-03T07:58:51.391Z,20.50
2023-08-03T08:01:20.605Z,20.50
2023-08-03T08:03:49.528Z,20.50
2023-08-03T08:06:20.838Z,20.50
2023-08-03T08:08:51.384Z,20.50
2023-08-03T08:11:20.688Z,20.50
2023-08-03T08:13:48.780Z,20.40
2023-08-03T08:16:17.453Z,20.40
2023-08-03T08:18:45.257Z,20.30
2023-08-03T08:21:14.216Z,20.30
2023-08-03T08:23:42.146Z,20.22
2023-08-03T08:26:17.098Z,20.22
2023-08-03T08:29:02.085Z,20.22
2023-08-03T08:34:02.310Z,20.20
2023-08-03T08:36:30.108Z,20.20
2023-08-03T08:38:57.799Z,20.20
2023-08-03T08:41:25.536Z,20.20
2023-08-03T08:43:53.240Z,20.20
2023-08-03T08:46:20.923Z,20.20
2023-08-03T08:48:50.441Z,20.20
2023-08-03T08:51:57.122Z,20.20
2023-08-03T09:01:55.273Z,20.10
2023-08-03T09:04:33.271Z,20.10
2023-08-03T09:07:02.800Z,20.10
2023-08-03T09:09:37.532Z,20.10
2023-08-03T09:12:09.089Z,20.12
2023-08-03T09:14:52.206Z,20.10
2023-08-03T09:17:24.081Z,20.10
2023-08-03T09:25:11.085Z,20.00
2023-08-03T09:30:22.022Z,19.90
2023-08-03T09:32:51.598Z,19.80
2023-08-03T09:35:24.923Z,19.80
2023-08-03T09:37:55.523Z,19.80
2023-08-03T09:40:25.072Z,19.80
2023-08-03T09:42:54.785Z,19.80
2023-08-03T09:47:57.913Z,19.80
2023-08-03T09:50:32.687Z,19.80
2023-08-03T09:55:48.965Z,19.80
2023-08-03T09:58:24.880Z,19.80
2023-08-03T10:00:58.793Z,19.80
2023-08-03T10:03:30.847Z,19.80
2023-08-03T10:06:11.807Z,19.76
2023-08-03T10:08:58.257Z,19.70
2023-08-03T10:11:38.120Z,19.74
2023-08-03T10:14:07.070Z,19.74
2023-08-03T10:16:37.009Z,19.80
2023-08-03T10:19:06.942Z,19.80
2023-08-03T10:21:36.184Z,19.80
2023-08-03T10:24:19.228Z,19.80
2023-08-03T10:26:55.629Z,19.90
2023-08-03T10:29:51.120Z,19.90
2023-08-03T10:32:22.512Z,19.90
2023-08-03T10:34:53.822Z,19.90
2023-08-03T10:37:21.659Z,19.90
2023-08-03T10:39:51.357Z,19.90
2023-08-03T10:42:28.757Z,19.90
2023-08-03T10:45:22.286Z,19.94
2023-08-03T10:47:50.662Z,20.00
2023-08-03T10:50:18.985Z,20.00
2023-08-03T10:52:46.947Z,20.02
2023-08-03T10:55:27.889Z,20.10
2023-08-03T10:57:58.594Z,20.10
2023-08-03T11:00:26.297Z,20.10
2023-08-03T11:02:54.081Z,20.18
2023-08-03T11:05:22.336Z,20.20
2023-08-03T11:07:50.129Z,20.24
2023-08-03T11:10:18.076Z,20.30
2023-08-03T11:12:47.433Z,20.30
2023-08-03T11:15:19.008Z,20.30
2023-08-03T11:17:51.819Z,20.30
2023-08-03T11:20:20.844Z,20.30
2023-08-03T11:22:49.011Z,20.38
2023-08-03T11:25:21.083Z,20.40
2023-08-03T11:27:48.946Z,20.40
2023-08-03T11:30:21.613Z,20.40
2023-08-03T11:32:56.651Z,20.40
2023-08-03T11:35:24.897Z,20.40
2023-08-03T11:37:52.583Z,20.40
2023-08-03T11:40:20.421Z,20.40
2023-08-03T11:42:48.267Z,20.50
2023-08-03T11:45:18.334Z,20.50
2023-08-03T11:47:48.882Z,20.50
2023-08-03T11:50:19.588Z,20.58
2023-08-03T11:52:47.974Z,20.60
2023-08-03T11:55:39.556Z,20.60
2023-08-03T11:58:11.175Z,20.60
2023-08-03T12:00:41.132Z,20.60
2023-08-03T12:03:09.158Z,20.60
2023-08-03T12:06:06.725Z,20.62
2023-08-03T12:08:47.292Z,20.70
2023-08-03T12:11:24.732Z,20.70
2023-08-03T12:13:53.561Z,20.70
2023-08-03T12:16:21.176Z,20.70
2023-08-03T12:18:50.688Z,20.70
2023-08-03T12:21:18.990Z,20.70
2023-08-03T12:23:46.778Z,20.80
2023-08-03T12:26:14.482Z,20.80
2023-08-03T12:28:42.431Z,20.80
2023-08-03T12:31:10.916Z,20.88
2023-08-03T12:33:38.930Z,20.90
2023-08-03T12:36:07.568Z,20.90
2023-08-03T12:38:35.232Z,20.90
2023-08-03T12:41:03.007Z,20.90
2023-08-03T12:43:33.733Z,20.90
2023-08-03T12:46:01.738Z,20.90
2023-08-03T12:48:29.967Z,20.90
2023-08-03T12:50:57.777Z,20.82
2023-08-03T12:53:27.153Z,20.80
2023-08-03T12:55:54.994Z,20.80
2023-08-03T12:58:22.818Z,20.80
2023-08-03T13:00:50.553Z,20.80
2023-08-03T13:03:18.492Z,20.76
2023-08-03T13:05:46.706Z,20.76
2023-08-03T13:08:18.394Z,20.80
2023-08-03T13:10:47.070Z,20.80
2023-08-03T13:13:18.297Z,20.80
2023-08-03T13:15:47.920Z,20.80
2023-08-03T13:18:17.075Z,20.80
2023-08-03T13:20:49.455Z,20.88
2023-08-03T13:23:17.678Z,20.90
2023-08-03T13:25:45.705Z,20.90
2023-08-03T13:28:13.692Z,21.00
2023-08-03T13:30:41.414Z,21.06
2023-08-03T13:33:09.360Z,21.10
2023-08-03T13:35:37.195Z,21.18
2023-08-03T13:38:04.959Z,21.20
2023-08-03T13:40:32.651Z,21.30
2023-08-03T13:43:00.333Z,21.40
2023-08-03T13:45:27.975Z,21.40
2023-08-03T13:47:55.712Z,21.40
2023-08-03T13:50:23.621Z,21.46
2023-08-03T13:52:51.379Z,21.50
2023-08-03T13:55:19.301Z,21.50
2023-08-03T13:57:46.962Z,21.60
2023-08-03T14:00:14.966Z,21.60
2023-08-03T14:02:44.800Z,21.62
2023-08-03T14:05:12.957Z,21.70
2023-08-03T14:22:44.549Z,21.80
2023-08-03T14:27:52.936Z,21.80
2023-08-03T14:30:21.557Z,21.80
2023-08-03T14:32:49.439Z,21.80
2023-08-03T14:37:48.918Z,21.80
2023-08-03T14:40:16.725Z,21.70
2023-08-03T14:42:44.910Z,21.70
2023-08-03T14:45:14.904Z,21.70
2023-08-03T14:50:20.360Z,21.70
2023-08-03T14:52:48.290Z,21.72
2023-08-03T14:55:15.935Z,21.70
2023-08-03T14:57:43.662Z,21.72
2023-08-03T15:00:12.155Z,21.72
2023-08-03T15:02:39.945Z,21.74
2023-08-03T15:05:08.328Z,21.80
2023-08-03T15:07:36.670Z,21.80
2023-08-03T15:10:04.626Z,21.80
2023-08-03T15:12:32.435Z,21.82
2023-08-03T15:15:08.594Z,21.88
2023-08-03T15:17:38.981Z,21.90
2023-08-03T15:20:08.477Z,21.90
2023-08-03T15:22:36.976Z,21.90
2023-08-03T15:25:06.112Z,21.90
2023-08-03T15:27:35.869Z,21.82
2023-08-03T15:30:32.331Z,21.80
2023-08-03T15:35:25.146Z,21.80
2023-08-03T15:37:54.018Z,21.80
2023-08-03T15:40:22.742Z,21.80
2023-08-03T15:42:53.995Z,21.78
2023-08-03T15:45:25.039Z,21.70
2023-08-03T15:50:29.558Z,21.70
2023-08-03T15:53:22.235Z,21.70
2023-08-03T15:58:32.984Z,21.68
2023-08-03T16:01:04.880Z,21.70
2023-08-03T16:03:32.744Z,21.70
2023-08-03T16:06:06.040Z,21.70
2023-08-03T16:08:33.684Z,21.70
2023-08-03T16:11:02.086Z,21.60
2023-08-03T16:13:30.750Z,21.60
2023-08-03T16:16:06.767Z,21.60
2023-08-03T16:18:35.558Z,21.60
2023-08-03T16:21:08.952Z,21.52
2023-08-03T16:23:36.931Z,21.50
2023-08-03T16:26:09.608Z,21.50
2023-08-03T16:28:38.302Z,21.50
2023-08-03T16:31:18.883Z,21.42
2023-08-03T16:33:47.025Z,21.40
2023-08-03T16:36:19.595Z,21.40
2023-08-03T16:38:47.933Z,21.40
2023-08-03T16:41:15.861Z,21.40
2023-08-03T16:43:43.647Z,21.40
2023-08-03T16:46:11.542Z,21.40
2023-08-03T16:48:41.037Z,21.36
2023-08-03T16:51:09.315Z,21.30
2023-08-03T16:53:37.009Z,21.30
2023-08-03T16:56:05.117Z,21.30
2023-08-03T16:58:33.108Z,21.30
2023-08-03T17:01:00.914Z,21.30
2023-08-03T17:03:28.862Z,21.20
2023-08-03T17:05:57.145Z,21.20
2023-08-03T17:08:24.877Z,21.20
2023-08-03T17:10:52.724Z,21.20
2023-08-03T17:13:20.406Z,21.20
2023-08-03T17:15:48.245Z,21.20
2023-08-03T17:18:16.023Z,21.10
2023-08-03T17:20:44.183Z,21.10
2023-08-03T17:23:11.910Z,21.08
2023-08-03T17:25:39.685Z,21.00
2023-08-03T17:28:07.468Z,21.00
2023-08-03T17:30:36.922Z,21.00
2023-08-03T17:33:05.142Z,20.94
2023-08-03T17:35:32.916Z,20.90
2023-08-03T17:38:00.559Z,20.90
2023-08-03T17:40:28.247Z,20.90
2023-08-03T17:42:56.038Z,20.86
2023-08-03T17:45:23.841Z,20.80
2023-08-03T17:47:51.581Z,20.80
2023-08-03T17:50:19.444Z,20.80
2023-08-03T17:52:51.080Z,20.80
2023-08-03T17:55:19.002Z,20.80
2023-08-03T17:57:46.711Z,20.82
2023-08-03T18:00:16.408Z,20.80
2023-08-03T18:02:44.949Z,20.80
2023-08-03T18:05:13.676Z,20.80
2023-08-03T18:07:41.337Z,20.80
2023-08-03T18:10:09.972Z,20.80
2023-08-03T18:12:37.810Z,20.74
2023-08-03T18:15:07.455Z,20.70
2023-08-03T18:17:35.257Z,20.70
2023-08-03T18:20:03.318Z,20.70
2023-08-03T18:22:31.064Z,20.64
2023-08-03T18:24:58.766Z,20.60
2023-08-03T18:27:26.690Z,20.60
2023-08-03T18:29:54.772Z,20.60
2023-08-03T18:32:22.478Z,20.60
2023-08-03T18:34:50.262Z,20.60
2023-08-03T18:37:19.086Z,20.60
2023-08-03T18:39:46.796Z,20.60
2023-08-03T18:42:15.040Z,20.50
2023-08-03T18:44:42.776Z,20.50
2023-08-03T18:47:10.434Z,20.50
2023-08-03T18:49:38.105Z,20.50
2023-08-03T18:52:07.195Z,20.48
2023-08-03T18:54:34.947Z,20.44
2023-08-03T18:57:02.679Z,20.40
2023-08-03T18:59:30.378Z,20.40
2023-08-03T19:01:58.036Z,20.40
2023-08-03T19:04:25.702Z,20.40
2023-08-03T19:06:53.360Z,20.40
2023-08-03T19:09:21.062Z,20.30
2023-08-03T19:11:48.719Z,20.30
2023-08-03T19:14:16.384Z,20.22
2023-08-03T19:16:44.185Z,20.20
2023-08-03T19:19:11.979Z,20.20
2023-08-03T19:21:39.638Z,20.20
2023-08-03T19:24:07.285Z,20.20
2023-08-03T19:26:34.942Z,20.20
2023-08-03T19:29:02.678Z,20.18
2023-08-03T19:31:30.368Z,20.10
2023-08-03T19:33:58.006Z,20.10
2023-08-03T19:36:25.658Z,20.10
2023-08-03T19:38:53.270Z,20.08
2023-08-03T19:41:20.981Z,20.00
2023-08-03T19:43:48.691Z,20.00
2023-08-03T19:46:16.578Z,20.00
2023-08-03T19:48:44.327Z,19.94
2023-08-03T19:53:42.760Z,20.00
2023-08-03T20:06:15.623Z,19.90
2023-08-03T20:11:14.111Z,19.90
2023-08-03T20:16:12.511Z,19.80
2023-08-03T20:19:05.600Z,19.80
2023-08-03T20:21:27.807Z,19.80
2023-08-03T20:23:56.195Z,19.80
2023-08-03T20:26:35.571Z,19.80
2023-08-03T20:29:05.993Z,19.82
2023-08-03T20:31:34.946Z,19.80
2023-08-03T20:36:34.105Z,19.80
2023-08-03T20:49:04.978Z,19.70
2023-08-03T20:51:32.986Z,19.72
2023-08-03T20:54:00.731Z,19.70
2023-08-03T20:56:28.406Z,19.70
2023-08-03T20:58:56.174Z,19.70
2023-08-03T21:01:24.012Z,19.70
2023-08-03T21:03:51.759Z,19.70
2023-08-03T21:06:20.819Z,19.70
2023-08-03T21:08:48.712Z,19.70
2023-08-03T21:11:17.223Z,19.68
2023-08-03T21:13:45.234Z,19.60
2023-08-03T21:16:14.909Z,19.60
2023-08-03T21:21:19.478Z,19.60
2023-08-03T21:23:47.798Z,19.58
2023-08-03T21:26:15.727Z,19.60
2023-08-03T21:28:45.756Z,19.60
2023-08-03T21:31:13.532Z,19.56
2023-08-03T21:33:41.526Z,19.54
2023-08-03T21:36:09.543Z,19.56
2023-08-03T21:38:37.180Z,19.50
2023-08-03T21:41:04.923Z,19.54
2023-08-03T21:43:32.645Z,19.56
2023-08-03T21:46:00.282Z,19.60
2023-08-03T21:48:28.066Z,19.56
2023-08-03T21:50:55.836Z,19.60
2023-08-03T21:53:23.541Z,19.58
2023-08-03T21:55:51.235Z,19.50
2023-08-03T21:58:18.939Z,19.50
2023-08-03T22:00:46.635Z,19.50
2023-08-03T22:03:14.652Z,19.50
2023-08-03T22:05:42.974Z,19.58
2023-08-03T22:08:10.634Z,19.60
2023-08-03T22:10:41.438Z,19.54
2023-08-03T22:13:09.450Z,19.50
2023-08-03T22:15:37.207Z,19.50
2023-08-03T22:18:05.013Z,19.50
2023-08-03T22:20:32.716Z,19.40
2023-08-03T22:23:00.418Z,19.40
2023-08-03T22:25:28.148Z,19.40
2023-08-03T22:27:55.815Z,19.40
2023-08-03T22:30:23.522Z,19.40
2023-08-03T22:32:51.183Z,19.38
2023-08-03T22:35:18.965Z,19.30
2023-08-03T22:37:46.690Z,19.30
2023-08-03T22:40:14.411Z,19.36
2023-08-03T22:42:43.549Z,19.30
2023-08-03T22:45:11.218Z,19.30
2023-08-03T22:48:02.002Z,19.40
2023-08-03T22:50:26.957Z,19.38
2023-08-03T22:52:54.654Z,19.30
2023-08-03T22:55:22.296Z,19.30
2023-08-03T22:57:49.996Z,19.30
2023-08-03T23:00:17.943Z,19.30
2023-08-03T23:02:45.988Z,19.30
2023-08-03T23:05:13.868Z,19.30
2023-08-03T23:07:41.564Z,19.30
2023-08-03T23:10:09.843Z,19.20
2023-08-03T23:12:40.067Z,19.20
2023-08-03T23:15:08.432Z,19.20
2023-08-03T23:17:36.159Z,19.16
2023-08-03T23:20:04.743Z,19.10
2023-08-03T23:22:32.558Z,19.10
2023-08-03T23:25:00.336Z,19.10
2023-08-03T23:27:28.015Z,19.10
2023-08-03T23:29:55.724Z,19.10
2023-08-03T23:32:23.441Z,19.10
2023-08-03T23:34:51.117Z,19.10
2023-08-03T23:37:18.805Z,19.06
2023-08-03T23:39:46.532Z,19.10
2023-08-03T23:42:14.208Z,19.10
2023-08-03T23:44:41.870Z,19.06
2023-08-03T23:47:09.616Z,19.00
2023-08-03T23:49:37.240Z,19.00
2023-08-03T23:52:05.467Z,18.94
2023-08-03T23:54:33.111Z,18.90
2023-08-03T23:57:00.809Z,18.90
2023-08-03T23:59:28.471Z,18.90
